SLCO/CIJ METAR and TAF weather

Enter ICAO airport designator
Station Type Date Time Source
SLCO METAR 2020/02/19 11:00 UTC NOAA

SLCO 191100Z 00000KT 9999 FEW023 BKN080 24/24 Q1010


Station Type Date Time Source
SLCO Decoded METAR 2020/02/19 11:00 UTC NOAA

Cobija, Bolivia (SLCO) 11-02S 068-47W 260M
Feb 19, 2020 - 06:00 AM EST / 2020.02.19 1100 UTC
Wind: Calm:0
Visibility: greater than 7 mile(s):0
Sky conditions: mostly cloudy
Temperature: 75 F (24 C)
Dew Point: 75 F (24 C)
Relative Humidity: 100%
Pressure (altimeter): 29.83 in. Hg (1010 hPa)
ob: SLCO 191100Z 00000KT 9999 FEW023 BKN080 24/24 Q1010
cycle: 11

Station Type Date Time Source
SLCO TAF 2020/02/19 12:46 UTC NOAA

TAF SLCO 191045Z 1912/2012 00000KT 9999 SCT023 BKN080 TX32/1920Z TN23 /2010
BECMG 1914/1917 33010KT
TEMPO 1918/1922 7000 SHRA FEW027CB

Example: see airport list